Soaring Guidance
Issued by NWS Reno, NV

Home | Current Version | Previous Version | Text Only | Print | Product List | Glossary On
Versions: 1 2 3 4 5 6 7
000
UXUS97 KREV 171432
SRGREV

SOARING FORECAST
NATIONAL WEATHER SERVICE - RENO NV
700 AM PST FRI NOV 17 2017

THIS SOARING FORECAST IS FOR THE EASTERN SIERRA AND WESTERN NEVADA
WITH SPECIFIC INDICES FOR THE GREATER RENO AREA.

THIS FORECAST IS PREPARED DAILY BY 700 AM AND IS NOT UPDATED.

FOR CURRENT FLIGHT CONDITIONS...FORECASTS...AND ADVISORIES...ACCESS
YOUR LOCAL BRIEFING OUTLET OR FLIGHT SERVICE STATION.

*******************************************************************
FORECASTED LOCAL INDICES FOR RENO:        TODAY     YESTERDAY
FORECASTED MAX TEMP AT RENO (DEG F).....     57          52
FORECASTED TRIGGER TEMPERATURE (DEG F)..     53          53
   EXCEEDED YESTERDAY BY
FORECASTED MAXIMUM ALTITUDE (FT MSL)....   9800        9800
FORECASTED SOARING INDEX (FPM)..........    294         294
FORECASTED K-INDEX.........VALID 18Z....      4          30
FORECASTED K-INDEX.........VALID 00Z....    -16          29
FORECASTED LIFTED INDEX....VALID 18Z....      9           3
FORECASTED LIFTED INDEX....VALID 00Z....     10           3

AFTERNOON WINDS ALOFT FORECAST
MSL (FT) WIND/TEMP
9000  3505/-06
10000 3412/-06
12000 3427/-06
14000 3229/-09
16000 3132/-13
18000 3139/-17
24000 3145/-31
30000 3050/-46
34000 2964/-52
39000 2775/-54

SLIDE MOUNTAIN DATA:
     DATE       TIME     TEMP  DEWPT   RH         WIND (MPH)
                        (F)   (F)           | DIR  SPEED GUST
2017-11-17    02:30      24    24     98    | 224   20   24
2017-11-17    02:20      24    23     98    | 224   18   28
2017-11-17    02:00      24    23     98    | 224   18   28
2017-11-17    01:50      24    23     98    | 224   22   29

SIERRA CREST 8700 FT DATA:
   DATE     TIME  TEMP  RH         WIND
                            DIR   SPEED   GUST
2017-11-17 0600   21   99   245     58     91
2017-11-17 0545   21  100   240     54     80
2017-11-17 0530   22  100   241     50     86
2017-11-17 0515   22  100   242     57     92

RENO TAF FORECAST:
KRNO 171140Z 1712/1812 30012G22KT P6SM -SHRA SCT035 BKN050
     FM171400 32010G20KT P6SM SCT050 BKN070
     FM171900 36008KT P6SM FEW070

CARSON CITY TAF FORECAST:
KCXP 171140Z 1712/1812 26014G24KT P6SM -SHRA SCT025 BKN045
     FM171500 29010G19KT P6SM SCT035 BKN060
     FM172000 34011KT P6SM FEW060

OUTLOOK FOR THE RENO-CARSON CITY-MINDEN AREA:
.SATURDAY...SUNNY. HIGHS 49 TO 54. LIGHT WINDS.

SUNRISE AND SUNSET
NOVEMBER 17 2017......SUNRISE   646 AM PST   SUNSET   442 PM PST
NOVEMBER 18 2017......SUNRISE   647 AM PST   SUNSET   442 PM PST



USA.gov is the U.S. government's official web portal to all federal, state and local government web resources and services.